Flight Track Log - Related Links

Times and Time Zones

All times are in EDT time to prevent confusion due to time zone crossing. See the RAX44 flight status page for this flight to view local times or setup timezone preferences in your user account.

Time Position Orientation Groundspeed Altitude Reporting Facility
EDT Latitude Longitude Course Direction KTS MPH feet Rate Location/Type
Fri 04:12:00 AM 28.6540 -82.8062 352° North  Level Estimated
Fri 04:13:00 AM 28.7780 -82.8261 352° North  Level Estimated
Fri 04:14:00 AM 28.9020 -82.8462 352° North  Level Estimated
Fri 04:15:00 AM 29.0260 -82.8662 352° North  Level Estimated
Fri 04:16:00 AM 29.1499 -82.8863 352° North  Level Estimated
Fri 04:17:00 AM 29.2739 -82.9065 352° North  Level Estimated
Fri 04:18:00 AM 29.3979 -82.9267 352° North  Level Estimated
Fri 04:19:00 AM 29.5219 -82.9469 352° North  Level Estimated
Fri 04:20:00 AM 29.6010 -83.0414 314° West  Level FlightAware Approximate
Fri 04:21:00 AM 29.7140 -83.0593 353° North  Level Estimated
Fri 04:22:00 AM 29.8272 -83.0773 353° North  Level Estimated
Fri 04:23:00 AM 29.9216 -83.1514 326° Northwest  Level FlightAware Approximate
Fri 04:24:00 AM 30.0347 -83.1691 351° North  Level Estimated
Fri 04:25:00 AM 30.1434 -83.2099 342° North  Level FlightAware Approximate
Fri 04:26:00 AM 30.2565 -83.2274 354° North  Level Estimated
Fri 04:27:00 AM 30.3669 -83.2616 345° North  Level FlightAware Approximate
Fri 04:28:00 AM 30.4801 -83.2791 353° North  Level Estimated
Fri 04:29:00 AM 30.5933 -83.2965 352° North  Level FlightAware Approximate
Fri 04:30:00 AM 30.7065 -83.3140 352° North  Level FlightAware Approximate
Fri 04:31:00 AM 30.8197 -83.3315 352° North  Level FlightAware Approximate
Fri 04:32:00 AM 30.9329 -83.3491 352° North  Level FlightAware Approximate
Fri 04:33:00 AM 31.0460 -83.3667 352° North  Level FlightAware Approximate
Fri 04:34:00 AM 31.1592 -83.3844 352° North  Level FlightAware Approximate
Fri 04:35:00 AM 31.2724 -83.4021 352° North  Level FlightAware Approximate
Fri 04:36:00 AM 31.3856 -83.4198 352° North  Level FlightAware Approximate
Fri 04:37:00 AM 31.4988 -83.4376 352° North  Level FlightAware Approximate
Fri 04:38:00 AM 31.6120 -83.4554 352° North  Level FlightAware Approximate
Fri 04:39:00 AM 31.7251 -83.4734 352° North  Level Estimated
Fri 04:40:00 AM 31.8368 -83.4907 352° North  Level FlightAware Approximate
Fri 04:41:00 AM 31.9485 -83.5081 352° North  Level FlightAware Approximate
Fri 04:42:00 AM 32.0601 -83.5255 352° North  Level FlightAware Approximate
Fri 04:43:00 AM 32.1718 -83.5430 352° North  Level FlightAware Approximate
Fri 04:44:00 AM 32.2834 -83.5605 352° North  Level FlightAware Approximate
Fri 04:45:00 AM 32.3951 -83.5780 352° North  Level FlightAware Approximate
Fri 04:46:00 AM 32.5079 -83.5958 352° North  Level FlightAware Approximate
Fri 04:47:00 AM 32.6206 -83.6136 352° North  Level FlightAware Approximate
Fri 04:48:00 AM 32.7334 -83.6315 352° North  Level FlightAware Approximate
Fri 04:49:00 AM 32.8462 -83.6494 352° North  Level FlightAware Approximate
Fri 04:50:00 AM 32.9588 -83.6687 352° North  Level FlightAware Approximate
Fri 04:51:00 AM 33.0724 -83.6882 352° North  Level FlightAware Approximate
Fri 04:52:00 AM 33.1860 -83.7078 352° North  Level FlightAware Approximate
Fri 04:53:00 AM 33.2996 -83.7274 352° North  Level FlightAware Approximate
Fri 04:54:00 AM 33.4132 -83.7471 352° North  Level FlightAware Approximate
Fri 04:55:00 AM 33.5269 -83.7669 352° North  Level FlightAware Approximate
Fri 04:56:00 AM 33.6404 -83.7867 352° North  Level FlightAware Approximate
Fri 04:57:00 AM 33.7542 -83.8053 353° North  Level FlightAware Approximate
Fri 04:58:00 AM 33.8682 -83.8216 353° North  Level FlightAware Approximate
Fri 04:58:01 AM 33.7169 -83.8539 351° North 462 532 39,000  Level Atlanta Center
Fri 04:59:00 AM 33.9822 -83.8379 353° North  Level FlightAware Approximate
Fri 04:59:01 AM 33.8422 -83.8764 352° North 462 532 39,100  Level Atlanta Center
Fri 05:00:00 AM 34.0961 -83.8545 353° North  Level FlightAware Approximate
Fri 05:00:01 AM 33.9694 -83.8961 353° North 462 532 39,700  Level Atlanta Center
Fri 05:01:00 AM 34.2100 -83.8720 353° North  Level FlightAware Approximate
Fri 05:01:01 AM 34.0800 -83.9133 353° North 462 532 40,200  Level Atlanta Center
Fri 05:02:00 AM 34.3245 -83.8904 352° North  Level FlightAware Approximate
Fri 05:02:01 AM 34.2011 -83.9358 351° North 456 525 40,900  Level Atlanta Center
Fri 05:03:00 AM 34.4381 -83.9117 351° North  Level FlightAware Approximate
Fri 05:03:01 AM 34.3264 -83.9533 353° North 450 518 41,000  Level Atlanta Center
Fri 05:04:01 AM 34.4497 -83.9758 351° North 445 512 41,000  Level Atlanta Center
Fri 05:05:01 AM 34.5747 -83.9933 353° North 445 512 41,000  Level Atlanta Center
Fri 05:06:01 AM 34.6981 -84.0161 351° North 445 512 41,000  Level Atlanta Center
Fri 05:07:01 AM 34.8189 -84.0389 351° North 445 512 41,000 -50 Level Atlanta Center
Fri 05:08:01 AM 34.9442 -84.0539 354° North 445 512 40,900  Descending Atlanta Center
Fri 05:09:01 AM 35.0672 -84.0794 350° North 445 512 41,000 50 Climbing Atlanta Center
Fri 05:10:01 AM 35.1944 -84.0997 353° North 450 518 41,000  Level Atlanta Center
Fri 05:11:01 AM 35.3178 -84.1203 352° North 450 518 41,000  Level Atlanta Center
Fri 05:12:01 AM 35.4408 -84.1408 352° North 445 512 41,000  Level Atlanta Center
Fri 05:13:01 AM 35.5658 -84.1614 352° North 445 512 41,000  Level Atlanta Center
Fri 05:14:01 AM 35.6869 -84.1819 352° North 445 512 41,000  Level Atlanta Center
Fri 05:15:01 AM 35.8119 -84.2000 353° North 445 512 41,000  Level Atlanta Center
Fri 05:17:21 AM 36.1058 -84.2544 351° North 445 512 41,000  Level Indianapolis Center
Fri 05:18:21 AM 36.2275 -84.2697 354° North 442 509 41,000  Level Indianapolis Center
Fri 05:19:22 AM 36.3492 -84.2956 350° North 444 511 41,000  Level Indianapolis Center
Fri 05:20:23 AM 36.4731 -84.3142 353° North 449 517 41,000  Level Indianapolis Center
Fri 05:21:23 AM 36.5994 -84.3333 353° North 446 513 41,000  Level Indianapolis Center
Fri 05:22:24 AM 36.7225 -84.3589 351° North 446 513 41,000  Level Indianapolis Center
Fri 05:23:24 AM 36.8461 -84.3750 354° North 447 514 41,000  Level Indianapolis Center
Fri 05:24:25 AM 36.9694 -84.4011 350° North 447 514 41,000  Level Indianapolis Center
Fri 05:25:26 AM 37.0933 -84.4197 353° North 448 516 41,000  Level Indianapolis Center
Fri 05:26:26 AM 37.2169 -84.4431 351° North 447 514 41,000  Level Indianapolis Center
Fri 05:27:27 AM 37.3408 -84.4647 352° North 456 525 41,000  Level Indianapolis Center
Fri 05:28:27 AM 37.4647 -84.4847 353° North 447 514 41,000  Level Indianapolis Center
Fri 05:29:28 AM 37.5886 -84.5100 351° North 448 516 41,000  Level Indianapolis Center
Fri 05:30:28 AM 37.7133 -84.5294 353° North 447 514 41,000  Level Indianapolis Center
Fri 05:31:29 AM 37.8356 -84.5561 350° North 444 511 41,000  Level Indianapolis Center
Fri 05:32:30 AM 37.9611 -84.5767 353° North 450 518 41,000  Level Indianapolis Center
Fri 05:33:30 AM 38.0847 -84.5986 352° North 448 516 41,000  Level Indianapolis Center
Fri 05:34:31 AM 38.2106 -84.6203 352° North 448 516 41,000  Level Indianapolis Center
Fri 05:35:31 AM 38.3356 -84.6392 353° North 448 516 41,000  Level Indianapolis Center
Fri 05:36:32 AM 38.4600 -84.6642 351° North 453 521 41,000  Level Indianapolis Center
Fri 05:37:32 AM 38.5831 -84.6844 353° North 448 516 41,000  Level Indianapolis Center
Fri 05:38:33 AM 38.7175 -84.7100 352° North 453 521 41,000  Level Indianapolis Center
Fri 05:39:33 AM 38.8394 -84.7369 350° North 447 514 41,000  Level Indianapolis Center
Fri 05:40:34 AM 38.9592 -84.7539 354° North 456 525 41,000  Level Indianapolis Center
Fri 05:41:35 AM 39.0856 -84.7808 351° North 459 528 41,000  Level Indianapolis Center
Fri 05:42:35 AM 39.2108 -84.8006 353° North 451 519 41,000  Level Indianapolis Center
Fri 05:43:36 AM 39.3378 -84.8269 351° North 453 521 41,000  Level Indianapolis Center
Fri 05:44:36 AM 39.4622 -84.8497 352° North 450 518 41,000  Level Indianapolis Center
Fri 05:45:37 AM 39.5889 -84.8708 353° North 455 524 41,000  Level Indianapolis Center
Fri 05:46:37 AM 39.7083 -84.8989 350° North 451 519 41,000  Level Indianapolis Center
Fri 05:47:38 AM 39.8325 -84.9169 354° North 450 518 41,000  Level Indianapolis Center
Fri 05:48:38 AM 39.9797 -84.9469 351° North 449 517 41,000  Level Indianapolis Center
Fri 05:49:39 AM 40.1047 -84.9711 352° North 455 524 41,000 -298 Level Indianapolis Center
Fri 05:50:39 AM 40.2283 -84.9925 352° North 453 521 40,400 -744 Descending Indianapolis Center
Fri 05:51:40 AM 40.3547 -85.0217 350° North 461 531 39,500 -1,279 Descending Indianapolis Center
Fri 05:52:41 AM 40.4792 -85.0406 353° North 455 524 37,800 -2,628 Descending Indianapolis Center
Fri 05:53:41 AM 40.6028 -85.0681 350° North 454 522 34,200 -1,884 Descending Indianapolis Center
Fri 05:54:42 AM 40.7261 -85.0869 353° North 451 519 34,000 -96 Descending Indianapolis Center
Fri 05:55:46 AM 40.8561 -85.1164 350° North 450 518 34,000 -48 Level Chicago Center
Fri 05:56:46 AM 40.9783 -85.1386 352° North 446 513 33,900 -400 Descending Chicago Center
Fri 05:57:46 AM 41.0989 -85.1611 352° North 440 506 33,200 -1,140 Descending Chicago Center
Fri 05:58:47 AM 41.2206 -85.1886 350° North 442 509 31,600 -1,426 Descending Chicago Center
Fri 05:59:48 AM 41.3464 -85.2097 353° North 454 522 30,300 -1,180 Descending Chicago Center
Fri 06:00:49 AM 41.4719 -85.2367 351° North 459 528 29,200 -1,240 Descending Chicago Center
Fri 06:01:49 AM 41.6150 -85.2653 351° North 442 509 27,800 -1,289 Descending Chicago Center
Fri 06:02:50 AM 41.7322 -85.2872 352° North 439 505 26,600 -1,388 Descending Chicago Center
Fri 06:03:50 AM 41.8506 -85.3156 350° North 439 505 25,000 -1,686 Descending Chicago Center
Fri 06:04:51 AM 41.9703 -85.3419 351° North 439 505 23,200 -1,983 Descending Chicago Center
Fri 06:05:51 AM 42.0936 -85.3800 347° North 424 488 21,000 -2,529 Descending Chicago Center
Fri 06:06:52 AM 42.2075 -85.3969 354° North 414 476 18,100 -2,727 Descending Chicago Center
Fri 06:07:52 AM 42.3147 -85.4058 356° North 391 450 15,500 -2,926 Descending Chicago Center
Fri 06:08:53 AM 42.4136 -85.4189 354° North 367 422 12,200 -3,025 Descending Chicago Center
Fri 06:09:53 AM 42.5064 -85.4331 354° North 344 396 9,400 -2,529 Descending Chicago Center
Fri 06:10:54 AM 42.5853 -85.4511 350° North 299 344 7,100 -2,083 Descending Chicago Center
Fri 06:11:54 AM 42.6600 -85.4706 349° North 281 323 5,200 -1,736 Descending Chicago Center
Fri 06:12:55 AM 42.7289 -85.4881 349° North 260 299 3,600 -1,289 Descending Chicago Center
Fri 06:13:55 AM 42.7903 -85.4994 352° North 235 270 2,600 -1,041 Descending Chicago Center
Fri 06:14:56 AM 42.8389 -85.5089 352° North 205 236 1,500 -793 Descending Chicago Center
Fri 06:15:56 AM 42.8878 -85.5183 352° North 186 214 1,000 -500 Descending Chicago Center
Fri 06:17:00 AM 42.8808 -85.5228 340° North  Level Estimated
Fri 06:24:00 AM 42.8808 -85.5228 340° North  Level Estimated

Login

Don't have an account? Register now (free) for customized features, flight alerts, and more!